createdAt,value
2018-11-11T00:00:55.098Z,15.78
2018-11-11T00:03:21.131Z,15.79
2018-11-11T00:05:47.219Z,15.79
2018-11-11T00:08:13.268Z,15.63
2018-11-11T00:10:39.308Z,15.80
2018-11-11T00:13:05.288Z,15.78
2018-11-11T00:15:31.296Z,15.77
2018-11-11T00:17:57.296Z,15.77
2018-11-11T00:20:23.337Z,15.57
2018-11-11T00:22:49.351Z,15.60
2018-11-11T00:25:15.452Z,15.64
2018-11-11T00:27:41.440Z,15.67
2018-11-11T00:30:07.478Z,15.55
2018-11-11T00:32:33.480Z,15.59
2018-11-11T00:34:59.789Z,15.57
2018-11-11T00:37:25.829Z,15.46
2018-11-11T00:39:51.959Z,15.54
2018-11-11T00:42:18.575Z,15.50
2018-11-11T00:44:44.598Z,15.54
2018-11-11T00:47:10.639Z,15.59
2018-11-11T00:49:36.709Z,15.66
2018-11-11T00:52:02.795Z,15.60
2018-11-11T00:54:28.828Z,15.59
2018-11-11T00:56:54.922Z,15.71
2018-11-11T00:59:22.918Z,15.59
2018-11-11T01:01:49.799Z,15.55
2018-11-11T01:04:15.826Z,15.58
2018-11-11T01:06:42.562Z,15.61
2018-11-11T01:09:08.611Z,15.47
2018-11-11T01:11:35.443Z,15.49
2018-11-11T01:14:01.544Z,15.63
2018-11-11T01:16:27.694Z,15.73
2018-11-11T01:18:53.785Z,15.83
2018-11-11T01:21:19.893Z,15.79
2018-11-11T01:23:46.042Z,15.84
2018-11-11T01:26:12.086Z,15.65
2018-11-11T01:28:38.283Z,15.55
2018-11-11T01:31:04.400Z,15.55
2018-11-11T01:33:30.419Z,15.58
2018-11-11T01:35:57.275Z,15.71
2018-11-11T01:38:23.284Z,15.54
2018-11-11T01:40:49.378Z,15.59
2018-11-11T01:43:15.532Z,15.74
2018-11-11T01:45:41.602Z,15.55
2018-11-11T01:48:08.316Z,15.43
2018-11-11T01:50:35.074Z,15.47
2018-11-11T01:53:02.395Z,15.54
2018-11-11T01:55:29.082Z,15.43
2018-11-11T01:57:55.264Z,15.58
2018-11-11T02:00:23.870Z,15.56
2018-11-11T02:02:49.939Z,15.54
2018-11-11T02:05:17.225Z,15.53
2018-11-11T02:07:43.831Z,15.51
2018-11-11T02:10:09.899Z,15.50
2018-11-11T02:12:36.035Z,15.62
2018-11-11T02:15:02.153Z,15.61
2018-11-11T02:17:28.273Z,15.56
2018-11-11T02:19:54.360Z,15.52
2018-11-11T02:22:20.419Z,15.63
2018-11-11T02:24:46.456Z,15.49
2018-11-11T02:27:13.169Z,15.44
2018-11-11T02:29:39.225Z,15.61
2018-11-11T02:32:06.200Z,15.39
2018-11-11T02:34:32.281Z,15.27
2018-11-11T02:36:58.324Z,15.21
2018-11-11T02:39:24.390Z,14.87
2018-11-11T02:41:50.498Z,14.96
2018-11-11T02:44:16.569Z,14.89
2018-11-11T02:46:42.721Z,14.88
2018-11-11T02:49:08.844Z,14.75
2018-11-11T02:51:34.965Z,14.67
2018-11-11T02:54:01.000Z,14.61
2018-11-11T02:56:27.165Z,14.79
2018-11-11T02:58:53.164Z,14.74
2018-11-11T03:01:19.189Z,14.97
2018-11-11T03:03:46.104Z,15.05
2018-11-11T03:06:12.147Z,14.67
2018-11-11T03:08:38.247Z,14.51
2018-11-11T03:11:04.372Z,14.44
2018-11-11T03:13:30.396Z,14.60
2018-11-11T03:15:56.475Z,14.68
2018-11-11T03:18:22.544Z,14.86
2018-11-11T03:20:48.584Z,14.71
2018-11-11T03:23:14.666Z,14.36
2018-11-11T03:25:40.758Z,14.13
2018-11-11T03:28:06.822Z,14.15
2018-11-11T03:30:32.874Z,14.01
2018-11-11T03:32:58.917Z,14.08
2018-11-11T03:35:24.925Z,14.04
2018-11-11T03:37:51.043Z,14.02
2018-11-11T03:40:17.073Z,14.31
2018-11-11T03:42:43.139Z,14.54
2018-11-11T03:45:09.281Z,14.72
2018-11-11T03:47:35.378Z,14.46
2018-11-11T03:50:01.436Z,14.38
2018-11-11T03:52:27.575Z,14.48
2018-11-11T03:54:53.740Z,14.54
2018-11-11T03:57:19.855Z,14.35
2018-11-11T03:59:46.053Z,13.98
2018-11-11T04:02:12.102Z,13.98
2018-11-11T04:04:38.196Z,14.11
2018-11-11T04:07:04.213Z,14.04
2018-11-11T04:09:30.265Z,14.10
2018-11-11T04:12:00.016Z,14.05
2018-11-11T04:14:26.005Z,14.30
2018-11-11T04:16:51.993Z,14.48
2018-11-11T04:19:18.738Z,14.62
2018-11-11T04:21:44.775Z,14.52
2018-11-11T04:24:10.864Z,14.57
2018-11-11T04:26:36.866Z,14.56
2018-11-11T04:29:02.944Z,14.55
2018-11-11T04:31:29.051Z,14.78
2018-11-11T04:33:55.148Z,14.65
2018-11-11T04:36:21.145Z,14.62
2018-11-11T04:38:47.144Z,14.33
2018-11-11T04:41:13.206Z,14.32
2018-11-11T04:43:39.259Z,14.11
2018-11-11T04:46:05.357Z,13.94
2018-11-11T04:48:31.423Z,13.95
2018-11-11T04:50:57.470Z,14.06
2018-11-11T04:53:23.478Z,14.08
2018-11-11T04:55:49.456Z,14.11
2018-11-11T04:58:15.535Z,14.31
2018-11-11T05:00:41.644Z,14.45
2018-11-11T05:03:07.720Z,14.50
2018-11-11T05:05:33.777Z,14.56
2018-11-11T05:07:59.755Z,14.43
2018-11-11T05:10:25.785Z,14.26
2018-11-11T05:12:51.814Z,14.44
2018-11-11T05:15:17.937Z,14.53
2018-11-11T05:17:43.984Z,14.57
2018-11-11T05:20:10.065Z,14.48
2018-11-11T05:22:36.159Z,14.45
2018-11-11T05:25:02.270Z,14.35
2018-11-11T05:27:29.326Z,14.58
2018-11-11T05:29:55.427Z,14.56
2018-11-11T05:32:21.438Z,14.68
2018-11-11T05:34:47.450Z,14.84
2018-11-11T05:37:13.467Z,15.03
2018-11-11T05:39:39.604Z,15.05
2018-11-11T05:42:06.221Z,15.23
2018-11-11T05:44:32.221Z,15.13
2018-11-11T05:46:58.270Z,15.07
2018-11-11T05:49:24.276Z,14.87
2018-11-11T05:51:50.320Z,14.91
2018-11-11T05:54:16.417Z,15.17
2018-11-11T05:56:42.482Z,15.25
2018-11-11T05:59:09.281Z,15.26
2018-11-11T06:01:35.308Z,15.32
2018-11-11T06:04:04.552Z,15.45
2018-11-11T06:06:31.390Z,15.50
2018-11-11T06:08:57.409Z,15.54
2018-11-11T06:11:23.489Z,15.55
2018-11-11T06:13:49.505Z,15.46
2018-11-11T06:16:15.529Z,15.43
2018-11-11T06:23:47.649Z,15.42
2018-11-11T06:26:13.772Z,15.67
2018-11-11T06:28:39.823Z,15.72
2018-11-11T06:31:05.849Z,15.67
2018-11-11T06:33:31.917Z,15.64
2018-11-11T06:35:58.010Z,15.57
2018-11-11T06:40:59.580Z,15.76
2018-11-11T06:43:25.612Z,15.74
2018-11-11T06:45:51.701Z,15.76
2018-11-11T06:48:21.041Z,15.76
2018-11-11T06:50:47.095Z,15.97
2018-11-11T06:53:13.067Z,16.06
2018-11-11T06:55:39.165Z,15.97
2018-11-11T06:58:09.480Z,15.92
2018-11-11T07:00:36.130Z,16.02
2018-11-11T07:03:02.144Z,16.15
2018-11-11T07:08:01.962Z,16.20
2018-11-11T07:10:28.013Z,16.21
2018-11-11T07:17:59.084Z,16.27
2018-11-11T07:20:25.067Z,16.32
2018-11-11T07:22:55.633Z,16.40
2018-11-11T07:25:21.681Z,16.42
2018-11-11T07:27:47.669Z,16.46
2018-11-11T07:30:13.743Z,16.55
2018-11-11T07:32:40.392Z,16.53
2018-11-11T07:35:08.452Z,16.56
2018-11-11T07:37:34.506Z,16.63
2018-11-11T07:40:00.627Z,16.78
2018-11-11T07:42:26.686Z,16.73
2018-11-11T07:44:52.613Z,16.74
2018-11-11T07:47:20.176Z,16.75
2018-11-11T07:49:46.187Z,16.56
2018-11-11T07:52:12.905Z,16.61
2018-11-11T07:54:39.070Z,16.58
2018-11-11T07:57:05.210Z,16.68
2018-11-11T07:59:31.337Z,16.86
2018-11-11T08:01:57.373Z,16.86
2018-11-11T08:04:23.516Z,16.91
2018-11-11T08:06:49.693Z,16.93
2018-11-11T08:09:15.771Z,16.92
2018-11-11T08:11:41.964Z,16.92
2018-11-11T08:14:08.080Z,17.00
2018-11-11T08:24:09.180Z,17.06
2018-11-11T08:26:35.286Z,17.13
2018-11-11T08:29:04.453Z,17.24
2018-11-11T08:46:28.712Z,17.58
2018-11-11T08:48:56.836Z,17.58
2018-11-11T08:51:22.918Z,17.63
2018-11-11T08:53:49.058Z,17.61
2018-11-11T08:56:15.127Z,17.63
2018-11-11T08:58:41.368Z,17.64
2018-11-11T09:01:07.480Z,17.64
2018-11-11T09:03:33.509Z,17.54
2018-11-11T09:05:59.563Z,17.62
2018-11-11T09:08:25.679Z,17.75
2018-11-11T09:10:51.844Z,17.80
2018-11-11T09:13:17.918Z,17.83
2018-11-11T09:15:43.972Z,17.91
2018-11-11T09:18:10.179Z,17.81
2018-11-11T09:20:36.291Z,17.79
2018-11-11T09:23:02.355Z,17.83
2018-11-11T09:25:30.473Z,17.95
2018-11-11T09:27:59.910Z,17.87
2018-11-11T09:30:26.138Z,17.81
2018-11-11T09:32:52.261Z,17.76
2018-11-11T09:35:18.462Z,17.84
2018-11-11T09:37:45.148Z,17.88
2018-11-11T09:40:11.215Z,17.99
2018-11-11T09:42:37.487Z,17.98
2018-11-11T09:45:03.840Z,18.17
2018-11-11T09:47:29.954Z,18.23
2018-11-11T09:49:56.979Z,18.23
2018-11-11T09:52:23.094Z,18.25
2018-11-11T09:54:49.134Z,18.28
2018-11-11T09:57:15.180Z,18.30
2018-11-11T09:59:42.296Z,18.14
2018-11-11T10:02:08.317Z,18.15
2018-11-11T10:04:35.248Z,17.99
2018-11-11T10:07:01.306Z,17.88
2018-11-11T10:09:28.727Z,17.94
2018-11-11T10:11:54.794Z,17.96
2018-11-11T10:14:22.864Z,17.90
2018-11-11T10:16:49.090Z,18.01
2018-11-11T10:24:52.514Z,18.08
2018-11-11T10:27:18.665Z,18.20
2018-11-11T10:29:46.227Z,18.21
2018-11-11T10:32:12.338Z,18.26
2018-11-11T10:34:38.497Z,18.16
2018-11-11T10:37:04.816Z,18.17
2018-11-11T10:39:31.041Z,18.17
2018-11-11T10:42:00.235Z,18.21
2018-11-11T10:44:28.502Z,18.18
2018-11-11T10:46:54.939Z,18.25
2018-11-11T10:49:21.174Z,18.37
2018-11-11T10:51:47.324Z,18.39
2018-11-11T10:54:13.426Z,18.36
2018-11-11T10:56:40.000Z,18.34
2018-11-11T10:59:06.105Z,18.36
2018-11-11T11:01:35.910Z,18.44
2018-11-11T11:04:10.627Z,18.34
2018-11-11T11:06:36.711Z,18.34
2018-11-11T11:11:52.524Z,18.41
2018-11-11T11:16:51.110Z,18.44
2018-11-11T11:19:17.326Z,18.43
2018-11-11T11:21:43.350Z,18.50
2018-11-11T11:24:09.458Z,18.60
2018-11-11T11:26:35.541Z,18.63
2018-11-11T11:29:01.614Z,18.75
2018-11-11T11:31:27.726Z,18.81
2018-11-11T11:33:54.532Z,18.85
2018-11-11T11:36:20.644Z,18.89
2018-11-11T11:38:46.746Z,18.85
2018-11-11T11:41:12.878Z,18.77
2018-11-11T11:43:38.941Z,18.65
2018-11-11T11:46:05.059Z,18.58
2018-11-11T11:51:28.627Z,18.59
2018-11-11T11:53:57.271Z,18.65
2018-11-11T11:56:25.160Z,18.53
2018-11-11T11:58:51.254Z,18.55
2018-11-11T12:01:20.013Z,18.65
2018-11-11T12:03:46.185Z,18.64
2018-11-11T12:06:13.972Z,18.70
2018-11-11T12:24:44.071Z,18.84
2018-11-11T12:29:45.146Z,18.88
2018-11-11T12:32:11.357Z,18.88
2018-11-11T12:34:37.470Z,19.06
2018-11-11T12:37:04.768Z,19.04
2018-11-11T12:42:05.686Z,18.89
2018-11-11T12:49:37.935Z,19.03
2018-11-11T12:52:04.099Z,19.06
2018-11-11T12:54:30.879Z,19.13
2018-11-11T12:56:57.027Z,19.23
2018-11-11T12:59:23.115Z,19.33
2018-11-11T13:01:52.481Z,19.37
2018-11-11T13:04:19.117Z,19.45
2018-11-11T13:06:46.532Z,19.43
2018-11-11T13:09:14.056Z,19.47
2018-11-11T13:11:40.221Z,19.54
2018-11-11T13:14:06.268Z,19.59
2018-11-11T13:16:33.412Z,19.57
2018-11-11T13:18:59.575Z,19.46
2018-11-11T13:21:32.131Z,19.58
2018-11-11T13:26:54.920Z,19.57
2018-11-11T13:32:00.594Z,19.68
2018-11-11T13:34:29.067Z,19.68
2018-11-11T13:42:06.694Z,19.77
2018-11-11T13:44:37.601Z,19.77
2018-11-11T13:47:04.213Z,19.78
2018-11-11T13:49:30.716Z,19.77
2018-11-11T13:51:56.909Z,19.74
2018-11-11T13:54:22.992Z,19.74
2018-11-11T13:56:49.057Z,19.77
2018-11-11T14:01:54.678Z,19.61
2018-11-11T14:04:20.699Z,19.62
2018-11-11T14:06:46.824Z,19.65
2018-11-11T14:09:12.936Z,19.71
2018-11-11T14:11:39.047Z,19.73
2018-11-11T14:14:05.184Z,19.74
2018-11-11T14:16:31.308Z,19.73
2018-11-11T14:18:57.725Z,19.75
2018-11-11T14:21:24.279Z,19.78
2018-11-11T14:23:50.411Z,19.78
2018-11-11T14:26:16.442Z,19.78
2018-11-11T14:28:42.650Z,19.83
2018-11-11T14:31:08.690Z,19.84
2018-11-11T14:33:34.746Z,19.82
2018-11-11T14:36:00.902Z,19.83
2018-11-11T14:38:26.929Z,19.86
2018-11-11T14:40:53.042Z,19.89
2018-11-11T14:43:19.151Z,19.88
2018-11-11T14:45:45.529Z,19.89
2018-11-11T14:48:11.657Z,19.90
2018-11-11T14:50:37.765Z,19.85
2018-11-11T14:53:03.889Z,19.85
2018-11-11T14:55:29.976Z,19.81
2018-11-11T14:57:56.129Z,19.83
2018-11-11T15:00:22.264Z,19.80
2018-11-11T15:02:48.403Z,19.77
2018-11-11T15:05:14.438Z,19.71
2018-11-11T15:07:40.528Z,19.70
2018-11-11T15:10:06.686Z,19.69
2018-11-11T15:12:32.746Z,19.63
2018-11-11T15:14:58.841Z,19.61
2018-11-11T15:17:24.987Z,19.53
2018-11-11T15:19:51.132Z,19.54
2018-11-11T15:22:17.202Z,19.54
2018-11-11T15:24:43.328Z,19.60
2018-11-11T15:27:09.437Z,19.63
2018-11-11T15:29:36.601Z,19.65
2018-11-11T15:32:02.727Z,19.73
2018-11-11T15:34:28.829Z,19.76
2018-11-11T15:36:54.939Z,19.77
2018-11-11T15:39:21.065Z,19.76
2018-11-11T15:41:47.450Z,19.76
2018-11-11T15:44:13.604Z,19.76
2018-11-11T15:46:39.733Z,19.72
2018-11-11T15:49:05.838Z,19.73
2018-11-11T15:51:31.923Z,19.67
2018-11-11T15:53:58.060Z,19.71
2018-11-11T15:56:24.203Z,19.74
2018-11-11T15:58:50.593Z,19.72
2018-11-11T16:01:16.684Z,19.71
2018-11-11T16:03:42.804Z,19.69
2018-11-11T16:06:08.912Z,19.65
2018-11-11T16:08:35.016Z,19.63
2018-11-11T16:11:01.129Z,19.68
2018-11-11T16:13:27.239Z,19.69
2018-11-11T16:15:53.288Z,19.69
2018-11-11T16:18:19.386Z,19.63
2018-11-11T16:20:46.578Z,19.67
2018-11-11T16:23:12.707Z,19.67
2018-11-11T16:25:38.900Z,19.56
2018-11-11T16:28:04.979Z,19.58
2018-11-11T16:30:31.109Z,19.60
2018-11-11T16:32:57.172Z,19.57
2018-11-11T16:35:23.859Z,19.54
2018-11-11T16:37:50.030Z,19.56
2018-11-11T16:40:16.215Z,19.52
2018-11-11T16:42:42.381Z,19.44
2018-11-11T16:45:08.437Z,19.46
2018-11-11T16:47:34.476Z,19.47
2018-11-11T16:50:00.534Z,19.34
2018-11-11T16:52:26.626Z,19.33
2018-11-11T16:54:53.140Z,19.38
2018-11-11T16:57:19.295Z,19.39
2018-11-11T16:59:46.201Z,19.35
2018-11-11T17:02:12.321Z,19.25
2018-11-11T17:04:38.438Z,19.22
2018-11-11T17:07:04.540Z,19.20
2018-11-11T17:09:30.567Z,19.18
2018-11-11T17:14:29.037Z,19.02
2018-11-11T17:16:55.162Z,18.93
2018-11-11T17:19:21.302Z,18.93
2018-11-11T17:21:47.929Z,18.88
2018-11-11T17:24:13.940Z,18.81
2018-11-11T17:26:40.037Z,18.75
2018-11-11T17:29:06.145Z,18.51
2018-11-11T17:31:32.207Z,18.56
2018-11-11T17:33:58.359Z,18.59
2018-11-11T17:36:24.405Z,18.59
2018-11-11T17:38:50.605Z,18.72
2018-11-11T17:41:16.709Z,18.69
2018-11-11T17:43:42.842Z,18.78
2018-11-11T17:46:09.251Z,18.65
2018-11-11T17:48:36.574Z,18.70
2018-11-11T17:51:02.786Z,18.67
2018-11-11T17:53:28.980Z,18.66
2018-11-11T17:55:55.149Z,18.54
2018-11-11T17:58:21.238Z,18.45
2018-11-11T18:00:47.346Z,18.47
2018-11-11T18:03:13.599Z,18.50
2018-11-11T18:05:39.822Z,18.43
2018-11-11T18:08:05.910Z,18.37
2018-11-11T18:10:32.079Z,18.38
2018-11-11T18:12:58.175Z,18.42
2018-11-11T18:15:24.332Z,18.40
2018-11-11T18:17:50.423Z,18.34
2018-11-11T18:20:16.576Z,18.28
2018-11-11T18:22:42.669Z,18.24
2018-11-11T18:25:08.823Z,18.27
2018-11-11T18:27:36.107Z,18.12
2018-11-11T18:30:02.058Z,18.24
2018-11-11T18:32:28.197Z,18.29
2018-11-11T18:34:54.417Z,18.27
2018-11-11T18:37:20.565Z,18.25
2018-11-11T18:39:46.656Z,18.28
2018-11-11T18:42:12.767Z,18.26
2018-11-11T18:44:39.318Z,18.33
2018-11-11T18:47:05.346Z,18.31
2018-11-11T18:49:31.397Z,18.28
2018-11-11T18:51:57.518Z,18.03
2018-11-11T18:54:23.610Z,18.24
2018-11-11T18:56:50.013Z,18.19
2018-11-11T18:59:16.114Z,18.06
2018-11-11T19:01:42.313Z,17.94
2018-11-11T19:04:08.386Z,17.91
2018-11-11T19:06:34.645Z,17.96
2018-11-11T19:09:00.770Z,18.04
2018-11-11T19:11:26.914Z,18.10
2018-11-11T19:13:53.840Z,17.97
2018-11-11T19:16:19.915Z,18.08
2018-11-11T19:18:46.010Z,18.03
2018-11-11T19:21:13.071Z,18.06
2018-11-11T19:23:39.260Z,18.11
2018-11-11T19:26:05.414Z,18.05
2018-11-11T19:28:33.266Z,17.87
2018-11-11T19:30:59.336Z,17.72
2018-11-11T19:33:25.550Z,17.71
2018-11-11T19:35:52.918Z,17.62
2018-11-11T19:38:19.011Z,17.62
2018-11-11T19:40:45.025Z,17.80
2018-11-11T19:43:11.117Z,17.75
2018-11-11T19:45:37.218Z,17.81
2018-11-11T19:48:03.431Z,17.88
2018-11-11T19:50:29.703Z,17.75
2018-11-11T19:52:55.962Z,17.69
2018-11-11T19:55:22.035Z,17.56
2018-11-11T19:57:48.085Z,17.50
2018-11-11T20:00:14.236Z,17.54
2018-11-11T20:02:40.418Z,17.43
2018-11-11T20:05:06.478Z,17.35
2018-11-11T20:07:32.546Z,17.29
2018-11-11T20:09:58.687Z,17.36
2018-11-11T20:12:24.790Z,17.44
2018-11-11T20:14:50.851Z,17.46
2018-11-11T20:17:16.917Z,17.53
2018-11-11T20:19:42.948Z,17.59
2018-11-11T20:22:08.964Z,17.55
2018-11-11T20:24:35.220Z,17.32
2018-11-11T20:27:02.569Z,17.16
2018-11-11T20:29:28.630Z,17.15
2018-11-11T20:31:54.741Z,17.12
2018-11-11T20:34:20.933Z,17.20
2018-11-11T20:36:47.094Z,17.31
2018-11-11T20:39:13.206Z,17.32
2018-11-11T20:41:40.498Z,17.34
2018-11-11T20:44:06.598Z,17.21
2018-11-11T20:46:32.695Z,17.33
2018-11-11T20:51:47.115Z,17.31
2018-11-11T20:54:15.128Z,17.19
2018-11-11T20:56:41.249Z,17.30
2018-11-11T20:59:07.373Z,17.41
2018-11-11T21:01:33.428Z,17.40
2018-11-11T21:03:59.788Z,17.52
2018-11-11T21:06:25.818Z,17.72
2018-11-11T21:08:51.836Z,17.85
2018-11-11T21:11:17.754Z,17.93
2018-11-11T21:13:43.821Z,18.05
2018-11-11T21:16:09.897Z,18.02
2018-11-11T21:18:35.947Z,18.00
2018-11-11T21:21:03.941Z,17.99
2018-11-11T21:23:29.910Z,18.00
2018-11-11T21:25:56.222Z,18.14
2018-11-11T21:28:22.198Z,18.18
2018-11-11T21:30:48.153Z,18.13
2018-11-11T21:33:14.189Z,18.03
2018-11-11T21:35:40.244Z,18.00
2018-11-11T21:38:06.279Z,17.94
2018-11-11T21:40:32.206Z,18.07
2018-11-11T21:42:58.200Z,18.11
2018-11-11T21:45:24.160Z,18.04
2018-11-11T21:47:50.467Z,18.05
2018-11-11T21:50:16.556Z,18.08
2018-11-11T21:52:42.624Z,17.98
2018-11-11T21:55:08.692Z,17.98
2018-11-11T21:57:35.390Z,17.95
2018-11-11T22:00:01.378Z,17.93
2018-11-11T22:02:27.408Z,17.96
2018-11-11T22:04:53.446Z,17.96
2018-11-11T22:07:19.395Z,17.93
2018-11-11T22:09:45.382Z,17.99
2018-11-11T22:12:12.063Z,18.02
2018-11-11T22:14:38.320Z,18.06
2018-11-11T22:17:04.455Z,18.08
2018-11-11T22:19:30.395Z,18.08
2018-11-11T22:21:56.429Z,18.07
2018-11-11T22:24:22.455Z,18.07
2018-11-11T22:26:48.504Z,18.10
2018-11-11T22:29:14.474Z,18.08
2018-11-11T22:31:41.148Z,18.06
2018-11-11T22:34:07.186Z,18.12
2018-11-11T22:36:33.172Z,18.08
2018-11-11T22:38:59.147Z,17.97
2018-11-11T22:41:25.121Z,18.06
2018-11-11T22:43:51.092Z,18.12
2018-11-11T22:46:17.164Z,18.01
2018-11-11T22:48:43.179Z,18.07
2018-11-11T22:51:09.188Z,18.05
2018-11-11T22:53:35.537Z,18.09
2018-11-11T22:56:01.488Z,17.97
2018-11-11T22:58:29.544Z,17.96
2018-11-11T23:00:55.934Z,17.95
2018-11-11T23:03:21.910Z,17.98
2018-11-11T23:05:47.886Z,18.06
2018-11-11T23:08:13.862Z,18.00
2018-11-11T23:10:39.884Z,18.04
2018-11-11T23:13:05.835Z,18.09
2018-11-11T23:15:31.797Z,18.16
2018-11-11T23:17:57.812Z,18.08
2018-11-11T23:20:23.802Z,18.05
2018-11-11T23:22:49.798Z,18.04
2018-11-11T23:25:15.753Z,18.05
2018-11-11T23:27:41.757Z,17.91
2018-11-11T23:30:07.693Z,17.61
2018-11-11T23:32:33.664Z,17.73
2018-11-11T23:34:59.686Z,17.76
2018-11-11T23:37:25.672Z,17.77
2018-11-11T23:39:51.694Z,17.71
2018-11-11T23:42:17.695Z,17.71
2018-11-11T23:44:43.669Z,17.77
2018-11-11T23:47:09.670Z,17.75
2018-11-11T23:49:35.662Z,17.71
2018-11-11T23:52:01.612Z,17.76
2018-11-11T23:54:27.571Z,17.89
2018-11-11T23:56:53.523Z,17.85
2018-11-11T23:59:19.859Z,17.77
